createdAt,value
2023-01-23T00:00:56.289Z,4.93
2023-01-23T00:03:24.915Z,4.90
2023-01-23T00:06:04.751Z,4.97
2023-01-23T00:08:33.554Z,4.67
2023-01-23T00:11:01.967Z,4.80
2023-01-23T00:13:30.349Z,5.50
2023-01-23T00:15:58.821Z,4.73
2023-01-23T00:18:27.278Z,4.63
2023-01-23T00:20:55.658Z,5.37
2023-01-23T00:23:25.437Z,5.00
2023-01-23T00:25:53.817Z,4.80
2023-01-23T00:28:22.233Z,5.00
2023-01-23T00:30:51.080Z,4.87
2023-01-23T00:33:19.550Z,4.87
2023-01-23T00:35:47.947Z,4.33
2023-01-23T00:38:16.392Z,4.60
2023-01-23T00:40:46.518Z,4.70
2023-01-23T00:43:14.922Z,3.77
2023-01-23T00:45:43.367Z,4.47
2023-01-23T00:48:11.815Z,3.97
2023-01-23T00:50:40.419Z,4.70
2023-01-23T00:53:08.870Z,4.30
2023-01-23T00:55:37.299Z,4.03
2023-01-23T00:58:07.286Z,3.77
2023-01-23T01:00:35.997Z,4.23
2023-01-23T01:03:04.457Z,3.97
2023-01-23T01:05:32.928Z,4.20
2023-01-23T01:08:01.424Z,4.27
2023-01-23T01:10:31.680Z,4.93
2023-01-23T01:13:00.874Z,4.13
2023-01-23T01:15:31.046Z,3.67
2023-01-23T01:17:59.640Z,3.87
2023-01-23T01:20:28.901Z,4.07
2023-01-23T01:22:57.642Z,3.73
2023-01-23T01:25:26.043Z,3.83
2023-01-23T01:27:55.998Z,3.70
2023-01-23T01:30:25.839Z,3.73
2023-01-23T01:32:56.339Z,4.00
2023-01-23T01:35:24.979Z,4.30
2023-01-23T01:37:53.420Z,3.73
2023-01-23T01:40:23.065Z,3.47
2023-01-23T01:42:52.667Z,3.53
2023-01-23T01:45:39.684Z,3.77
2023-01-23T01:48:09.550Z,3.33
2023-01-23T01:50:38.121Z,3.70
2023-01-23T01:53:06.675Z,3.67
2023-01-23T01:55:35.143Z,3.57
2023-01-23T01:58:03.647Z,3.60
2023-01-23T02:00:32.118Z,2.97
2023-01-23T02:03:03.574Z,3.47
2023-01-23T02:05:34.921Z,3.40
2023-01-23T02:08:05.175Z,3.10
2023-01-23T02:10:34.905Z,3.30
2023-01-23T02:13:20.240Z,3.43
2023-01-23T02:15:48.889Z,3.23
2023-01-23T02:18:17.471Z,3.63
2023-01-23T02:20:47.529Z,3.37
2023-01-23T02:23:20.316Z,3.53
2023-01-23T02:25:53.807Z,3.20
2023-01-23T02:28:22.196Z,3.50
2023-01-23T02:30:51.202Z,4.07
2023-01-23T02:33:38.177Z,3.23
2023-01-23T02:36:09.021Z,3.57
2023-01-23T02:38:38.895Z,3.97
2023-01-23T02:41:10.849Z,4.03
2023-01-23T02:43:39.457Z,3.33
2023-01-23T02:46:08.712Z,3.70
2023-01-23T02:48:37.513Z,3.70
2023-01-23T02:51:06.225Z,3.80
2023-01-23T02:53:34.737Z,3.40
2023-01-23T02:56:03.126Z,3.80
2023-01-23T02:58:50.390Z,3.83
2023-01-23T03:01:18.842Z,3.57
2023-01-23T03:03:47.291Z,3.93
2023-01-23T03:06:15.704Z,3.40
2023-01-23T03:08:49.255Z,3.60
2023-01-23T03:11:18.683Z,3.13
2023-01-23T03:13:48.836Z,3.80
2023-01-23T03:16:17.512Z,3.63
2023-01-23T03:18:54.307Z,2.97
2023-01-23T03:21:23.364Z,2.97
2023-01-23T03:23:51.791Z,3.10
2023-01-23T03:26:20.179Z,3.43
2023-01-23T03:29:07.849Z,3.03
2023-01-23T03:31:36.351Z,3.10
2023-01-23T03:34:04.770Z,3.13
2023-01-23T03:36:33.213Z,3.50
2023-01-23T03:39:19.118Z,3.07
2023-01-23T03:41:48.317Z,2.87
2023-01-23T03:44:20.202Z,3.10
2023-01-23T03:46:48.635Z,3.13
2023-01-23T03:49:17.207Z,3.20
2023-01-23T03:51:46.011Z,3.03
2023-01-23T03:54:14.714Z,2.93
2023-01-23T03:56:43.353Z,3.20
2023-01-23T03:59:12.003Z,3.17
2023-01-23T04:01:41.776Z,3.07
2023-01-23T04:04:10.244Z,3.20
2023-01-23T04:06:38.772Z,3.50
2023-01-23T04:09:07.399Z,3.17
2023-01-23T04:11:35.808Z,4.03
2023-01-23T04:14:04.212Z,4.00
2023-01-23T04:16:32.670Z,3.70
2023-01-23T04:19:02.944Z,3.70
2023-01-23T04:21:31.352Z,3.60
2023-01-23T04:23:59.726Z,3.30
2023-01-23T04:26:28.198Z,3.53
2023-01-23T04:28:56.610Z,3.50
2023-01-23T04:31:25.152Z,3.17
2023-01-23T04:33:53.657Z,3.50
2023-01-23T04:36:23.485Z,3.50
2023-01-23T04:38:51.850Z,3.20
2023-01-23T04:41:21.491Z,3.50
2023-01-23T04:43:49.918Z,3.40
2023-01-23T04:46:18.343Z,3.30
2023-01-23T04:48:48.853Z,3.27
2023-01-23T04:51:17.733Z,3.43
2023-01-23T04:53:47.707Z,3.50
2023-01-23T04:56:16.133Z,3.50
2023-01-23T04:58:44.530Z,3.87
2023-01-23T05:01:13.049Z,3.60
2023-01-23T05:03:41.543Z,3.03
2023-01-23T05:06:10.034Z,2.97
2023-01-23T05:08:38.405Z,2.97
2023-01-23T05:11:08.312Z,2.90
2023-01-23T05:13:36.721Z,3.07
2023-01-23T05:16:05.205Z,3.07
2023-01-23T05:18:33.682Z,3.07
2023-01-23T05:21:02.107Z,3.00
2023-01-23T05:23:30.522Z,2.87
2023-01-23T05:25:59.079Z,2.70
2023-01-23T05:28:28.849Z,2.60
2023-01-23T05:30:57.324Z,2.33
2023-01-23T05:33:25.966Z,2.33
2023-01-23T05:35:54.389Z,2.10
2023-01-23T05:38:22.774Z,2.30
2023-01-23T05:40:51.261Z,2.17
2023-01-23T05:43:19.648Z,2.17
2023-01-23T05:45:49.504Z,1.80
2023-01-23T05:48:17.974Z,2.10
2023-01-23T05:50:46.460Z,2.27
2023-01-23T05:53:14.878Z,2.23
2023-01-23T05:55:43.333Z,2.20
2023-01-23T05:58:12.557Z,1.90
2023-01-23T06:00:41.784Z,2.20
2023-01-23T06:03:11.673Z,2.03
2023-01-23T06:05:41.707Z,1.83
2023-01-23T06:08:10.087Z,1.80
2023-01-23T06:10:38.804Z,2.00
2023-01-23T06:13:07.489Z,1.87
2023-01-23T06:15:35.876Z,1.90
2023-01-23T06:18:04.477Z,2.10
2023-01-23T06:20:34.259Z,2.00
2023-01-23T06:23:02.671Z,1.80
2023-01-23T06:25:31.081Z,1.80
2023-01-23T06:27:59.507Z,2.00
2023-01-23T06:30:27.921Z,1.70
2023-01-23T06:32:56.504Z,2.00
2023-01-23T06:35:24.962Z,1.87
2023-01-23T06:37:54.735Z,1.97
2023-01-23T06:40:23.208Z,1.80
2023-01-23T06:42:52.026Z,1.80
2023-01-23T06:45:20.764Z,1.50
2023-01-23T06:47:49.336Z,1.60
2023-01-23T06:50:18.615Z,1.40
2023-01-23T06:52:47.173Z,1.57
2023-01-23T06:55:17.044Z,1.50
2023-01-23T06:57:45.421Z,1.67
2023-01-23T07:00:15.023Z,1.50
2023-01-23T07:02:45.532Z,1.40
2023-01-23T07:05:14.160Z,1.40
2023-01-23T07:07:42.653Z,1.40
2023-01-23T07:10:11.929Z,1.63
2023-01-23T07:12:41.720Z,1.50
2023-01-23T07:15:10.573Z,1.60
2023-01-23T07:17:39.008Z,1.70
2023-01-23T07:20:07.963Z,1.60
2023-01-23T07:22:36.491Z,1.80
2023-01-23T07:25:05.576Z,1.93
2023-01-23T07:27:34.245Z,1.80
2023-01-23T07:30:04.010Z,2.10
2023-01-23T07:32:32.459Z,1.90
2023-01-23T07:35:00.885Z,2.10
2023-01-23T07:37:29.297Z,1.97
2023-01-23T07:39:58.010Z,2.10
2023-01-23T07:42:26.413Z,1.90
2023-01-23T07:44:54.780Z,2.10
2023-01-23T07:47:24.615Z,1.93
2023-01-23T07:49:53.090Z,1.80
2023-01-23T07:52:21.458Z,2.20
2023-01-23T07:54:49.873Z,1.60
2023-01-23T07:57:18.260Z,1.70
2023-01-23T07:59:46.646Z,1.60
2023-01-23T08:02:15.201Z,1.53
2023-01-23T08:04:44.988Z,1.53
2023-01-23T08:07:13.376Z,1.70
2023-01-23T08:09:41.811Z,1.80
2023-01-23T08:12:10.185Z,1.40
2023-01-23T08:14:39.299Z,1.70
2023-01-23T08:17:07.730Z,1.60
2023-01-23T08:19:36.154Z,1.70
2023-01-23T08:22:05.954Z,1.50
2023-01-23T08:24:34.400Z,1.77
2023-01-23T08:27:02.780Z,1.90
2023-01-23T08:29:32.803Z,2.17
2023-01-23T08:32:01.384Z,1.97
2023-01-23T08:34:29.816Z,2.13
2023-01-23T08:36:58.216Z,2.30
2023-01-23T08:39:28.175Z,2.87
2023-01-23T08:41:56.642Z,2.63
2023-01-23T08:44:25.721Z,3.10
2023-01-23T08:46:54.210Z,2.20
2023-01-23T08:49:22.866Z,2.77
2023-01-23T08:51:51.258Z,3.40
2023-01-23T08:54:19.671Z,2.67
2023-01-23T08:56:49.418Z,2.70
2023-01-23T08:59:17.830Z,3.03
2023-01-23T09:01:48.071Z,5.63
2023-01-23T09:04:18.723Z,3.17
2023-01-23T09:06:47.266Z,2.90
2023-01-23T09:09:15.694Z,3.47
2023-01-23T09:11:44.113Z,3.10
2023-01-23T09:14:13.885Z,3.63
2023-01-23T09:16:42.364Z,4.33
2023-01-23T09:19:12.724Z,3.40
2023-01-23T09:21:41.171Z,4.23
2023-01-23T09:24:09.768Z,4.60
2023-01-23T09:26:38.236Z,5.77
2023-01-23T09:29:06.977Z,4.80
2023-01-23T09:31:37.400Z,5.70
2023-01-23T09:34:07.818Z,5.17
2023-01-23T09:36:42.994Z,5.60
2023-01-23T09:39:12.306Z,4.73
2023-01-23T09:41:41.549Z,5.90
2023-01-23T09:44:12.882Z,5.70
2023-01-23T09:46:45.119Z,4.30
2023-01-23T09:49:16.914Z,3.63
2023-01-23T09:51:53.169Z,4.00
2023-01-23T09:54:43.279Z,5.53
2023-01-23T09:57:16.068Z,5.93
2023-01-23T09:59:58.647Z,4.90
2023-01-23T10:02:30.131Z,4.73
2023-01-23T10:04:59.540Z,5.47
2023-01-23T10:07:40.621Z,5.27
2023-01-23T10:10:16.253Z,4.87
2023-01-23T10:12:49.084Z,5.23
2023-01-23T10:15:30.408Z,6.07
2023-01-23T10:18:04.735Z,5.50
2023-01-23T10:20:45.321Z,6.33
2023-01-23T10:23:19.351Z,6.37
2023-01-23T10:25:48.415Z,5.97
2023-01-23T10:28:19.410Z,8.37
2023-01-23T10:30:49.831Z,7.43
2023-01-23T10:33:20.398Z,6.43
2023-01-23T10:35:51.857Z,5.80
2023-01-23T10:38:26.654Z,6.47
2023-01-23T10:41:12.868Z,4.47
2023-01-23T10:43:41.792Z,3.80
2023-01-23T10:46:12.096Z,3.77
2023-01-23T10:48:43.872Z,4.10
2023-01-23T10:51:32.359Z,4.83
2023-01-23T10:54:30.248Z,4.77
2023-01-23T10:57:00.860Z,6.60
2023-01-23T10:59:32.640Z,7.10
2023-01-23T11:02:07.482Z,5.30
2023-01-23T11:04:38.442Z,7.30
2023-01-23T11:07:08.682Z,6.90
2023-01-23T11:09:47.388Z,6.30
2023-01-23T11:12:21.188Z,7.20
2023-01-23T11:14:49.947Z,6.33
2023-01-23T11:17:20.586Z,4.70
2023-01-23T11:19:51.737Z,4.03
2023-01-23T11:22:31.074Z,6.80
2023-01-23T11:24:59.834Z,7.57
2023-01-23T11:27:29.870Z,4.77
2023-01-23T11:30:05.568Z,5.60
2023-01-23T11:32:36.606Z,4.87
2023-01-23T11:35:11.890Z,5.10
2023-01-23T11:37:41.801Z,6.23
2023-01-23T11:40:13.407Z,7.20
2023-01-23T11:42:42.979Z,5.47
2023-01-23T11:45:15.172Z,5.80
2023-01-23T11:47:53.322Z,8.00
2023-01-23T11:50:54.457Z,7.43
2023-01-23T11:53:41.467Z,6.97
2023-01-23T11:56:44.735Z,5.23
2023-01-23T11:59:33.509Z,7.70
2023-01-23T12:02:18.140Z,5.00
2023-01-23T12:04:55.239Z,5.90
2023-01-23T12:07:24.989Z,7.47
2023-01-23T12:10:03.262Z,7.80
2023-01-23T12:12:39.458Z,5.73
2023-01-23T12:15:13.703Z,6.30
2023-01-23T12:17:44.150Z,5.87
2023-01-23T12:20:23.408Z,4.97
2023-01-23T12:22:56.090Z,5.23
2023-01-23T12:25:30.691Z,3.47
2023-01-23T12:28:02.572Z,3.53
2023-01-23T12:30:39.020Z,3.47
2023-01-23T12:33:15.865Z,4.13
2023-01-23T12:35:47.828Z,3.00
2023-01-23T12:38:27.512Z,2.70
2023-01-23T12:41:04.353Z,2.23
2023-01-23T12:43:36.919Z,2.73
2023-01-23T12:46:07.814Z,3.27
2023-01-23T12:48:38.499Z,4.17
2023-01-23T12:51:09.576Z,3.40
2023-01-23T12:53:40.065Z,2.70
2023-01-23T12:56:12.464Z,3.57
2023-01-23T12:58:42.845Z,3.63
2023-01-23T13:01:23.639Z,3.03
2023-01-23T13:04:06.629Z,3.00
2023-01-23T13:06:43.694Z,3.33
2023-01-23T13:09:18.682Z,3.93
2023-01-23T13:11:52.357Z,3.33
2023-01-23T13:14:29.074Z,3.17
2023-01-23T13:17:02.807Z,3.90
2023-01-23T13:19:49.536Z,3.10
2023-01-23T13:22:29.106Z,3.53
2023-01-23T13:25:12.946Z,3.23
2023-01-23T13:27:44.891Z,3.00
2023-01-23T13:30:33.054Z,3.70
2023-01-23T13:33:03.957Z,3.60
2023-01-23T13:35:52.699Z,2.73
2023-01-23T13:38:32.181Z,2.30
2023-01-23T13:41:19.334Z,2.43
2023-01-23T13:43:54.937Z,2.97
2023-01-23T13:46:26.850Z,2.60
2023-01-23T14:20:24.671Z,3.53
2023-01-23T14:22:55.796Z,3.67
2023-01-23T14:25:24.627Z,3.40
2023-01-23T14:28:04.131Z,2.77
2023-01-23T14:30:32.723Z,4.07
2023-01-23T14:33:02.530Z,3.83
2023-01-23T14:35:32.173Z,2.77
2023-01-23T14:38:01.838Z,3.40
2023-01-23T14:40:40.095Z,3.80
2023-01-23T14:43:19.687Z,3.10
2023-01-23T14:45:49.397Z,3.40
2023-01-23T14:48:20.652Z,3.30
2023-01-23T14:50:49.054Z,2.33
2023-01-23T14:53:18.174Z,2.60
2023-01-23T14:55:49.774Z,2.70
2023-01-23T14:58:23.051Z,3.07
2023-01-23T15:00:51.899Z,2.30
2023-01-23T15:03:35.214Z,2.47
2023-01-23T15:06:06.525Z,2.47
2023-01-23T15:08:36.031Z,2.80
2023-01-23T15:11:06.568Z,2.20
2023-01-23T15:13:38.381Z,2.17
2023-01-23T15:16:07.877Z,2.73
2023-01-23T15:18:37.222Z,1.80
2023-01-23T15:21:07.675Z,2.20
2023-01-23T15:23:37.412Z,2.60
2023-01-23T15:26:13.071Z,2.40
2023-01-23T15:28:43.080Z,2.40
2023-01-23T15:31:24.952Z,2.33
2023-01-23T15:33:53.631Z,2.60
2023-01-23T15:36:27.808Z,2.30
2023-01-23T15:38:56.653Z,1.63
2023-01-23T15:41:39.201Z,2.20
2023-01-23T15:44:13.013Z,1.80
2023-01-23T15:46:41.440Z,2.20
2023-01-23T15:49:23.583Z,2.50
2023-01-23T15:51:56.368Z,2.30
2023-01-23T15:54:26.488Z,2.20
2023-01-23T15:57:06.565Z,2.10
2023-01-23T15:59:36.647Z,2.90
2023-01-23T16:02:05.188Z,2.33
2023-01-23T16:04:33.603Z,3.13
2023-01-23T16:07:04.495Z,3.17
2023-01-23T16:09:34.350Z,2.80
2023-01-23T16:12:02.955Z,2.33
2023-01-23T16:14:31.396Z,2.10
2023-01-23T16:17:11.345Z,1.83
2023-01-23T16:19:44.630Z,2.07
2023-01-23T16:22:16.587Z,1.70
2023-01-23T16:24:45.226Z,2.00
2023-01-23T16:27:17.960Z,1.83
2023-01-23T16:29:46.379Z,1.77
2023-01-23T16:32:14.832Z,2.17
2023-01-23T16:34:43.305Z,2.47
2023-01-23T16:37:15.179Z,1.87
2023-01-23T16:39:46.307Z,1.87
2023-01-23T16:42:17.004Z,1.90
2023-01-23T16:44:45.415Z,1.80
2023-01-23T16:47:13.829Z,1.63
2023-01-23T16:49:52.289Z,1.90
2023-01-23T16:52:22.466Z,1.80
2023-01-23T16:54:53.549Z,1.73
2023-01-23T16:57:22.902Z,2.20
2023-01-23T16:59:51.806Z,1.70
2023-01-23T17:02:22.640Z,1.53
2023-01-23T17:04:51.548Z,1.90
2023-01-23T17:07:20.871Z,2.07
2023-01-23T17:09:50.290Z,1.93
2023-01-23T17:12:21.025Z,2.00
2023-01-23T17:14:52.607Z,2.30
2023-01-23T17:17:24.283Z,1.57
2023-01-23T17:19:52.701Z,1.73
2023-01-23T17:22:22.854Z,1.67
2023-01-23T17:24:51.392Z,1.50
2023-01-23T17:27:21.212Z,1.70
2023-01-23T17:29:49.666Z,1.83
2023-01-23T17:32:23.657Z,2.30
2023-01-23T17:34:52.179Z,1.80
2023-01-23T17:37:21.923Z,1.70
2023-01-23T17:39:50.311Z,1.90
2023-01-23T17:42:18.795Z,1.50
2023-01-23T17:44:48.562Z,1.80
2023-01-23T17:47:17.453Z,2.10
2023-01-23T17:49:48.057Z,1.90
2023-01-23T17:52:16.643Z,1.70
2023-01-23T17:54:45.057Z,1.53
2023-01-23T17:57:15.046Z,1.33
2023-01-23T17:59:43.491Z,1.50
2023-01-23T18:02:22.318Z,1.40
2023-01-23T18:04:50.755Z,1.60
2023-01-23T18:07:19.210Z,1.90
2023-01-23T18:09:47.655Z,1.97
2023-01-23T18:12:18.872Z,2.10
2023-01-23T18:14:48.949Z,2.40
2023-01-23T18:17:22.918Z,2.30
2023-01-23T18:19:53.948Z,2.80
2023-01-23T18:22:22.616Z,2.87
2023-01-23T18:24:51.348Z,2.60
2023-01-23T18:27:22.020Z,2.47
2023-01-23T18:29:56.167Z,2.93
2023-01-23T18:32:45.398Z,2.37
2023-01-23T18:35:20.061Z,2.50
2023-01-23T18:37:52.940Z,2.50
2023-01-23T18:40:25.648Z,2.40
2023-01-23T18:42:58.495Z,2.57
2023-01-23T18:45:28.026Z,2.60
2023-01-23T18:47:57.262Z,2.80
2023-01-23T18:50:27.592Z,2.37
2023-01-23T18:53:06.092Z,2.20
2023-01-23T18:55:38.581Z,1.90
2023-01-23T18:58:30.626Z,2.20
2023-01-23T19:01:05.158Z,2.13
2023-01-23T19:03:37.287Z,2.17
2023-01-23T19:06:13.140Z,2.00
2023-01-23T19:08:42.360Z,2.13
2023-01-23T19:11:19.336Z,2.13
2023-01-23T19:13:55.300Z,1.70
2023-01-23T19:16:30.769Z,2.20
2023-01-23T19:19:14.643Z,2.13
2023-01-23T19:21:47.835Z,2.23
2023-01-23T19:24:17.462Z,2.30
2023-01-23T19:26:46.126Z,2.07
2023-01-23T19:29:21.973Z,2.27
2023-01-23T19:32:06.928Z,2.23
2023-01-23T19:34:35.951Z,2.40
2023-01-23T19:37:05.786Z,2.20
2023-01-23T19:39:34.197Z,2.10
2023-01-23T19:42:02.668Z,2.23
2023-01-23T19:44:31.148Z,2.70
2023-01-23T19:47:00.017Z,2.20
2023-01-23T19:49:28.551Z,2.30
2023-01-23T19:51:57.067Z,2.33
2023-01-23T19:54:26.885Z,2.50
2023-01-23T19:56:55.309Z,2.27
2023-01-23T19:59:25.111Z,2.40
2023-01-23T20:01:54.315Z,2.70
2023-01-23T20:04:24.064Z,2.40
2023-01-23T20:06:52.878Z,2.33
2023-01-23T20:09:21.578Z,2.40
2023-01-23T20:11:52.296Z,2.30
2023-01-23T20:14:22.239Z,2.30
2023-01-23T20:16:50.685Z,2.40
2023-01-23T20:19:19.557Z,2.10
2023-01-23T20:21:48.731Z,2.20
2023-01-23T20:24:17.479Z,2.13
2023-01-23T20:26:46.392Z,2.30
2023-01-23T20:29:16.443Z,2.13
2023-01-23T20:31:44.849Z,2.20
2023-01-23T20:34:13.374Z,2.27
2023-01-23T20:36:41.796Z,2.23
2023-01-23T20:39:10.256Z,2.20
2023-01-23T20:41:38.691Z,2.30
2023-01-23T20:44:07.332Z,2.30
2023-01-23T20:46:37.271Z,2.20
2023-01-23T20:49:05.834Z,2.23
2023-01-23T20:51:34.325Z,2.40
2023-01-23T20:54:02.748Z,2.30
2023-01-23T20:56:31.220Z,2.23
2023-01-23T20:59:17.622Z,2.50
2023-01-23T21:02:05.262Z,2.30
2023-01-23T21:04:35.144Z,2.03
2023-01-23T21:07:04.193Z,2.10
2023-01-23T21:09:32.646Z,2.00
2023-01-23T21:12:01.054Z,2.00
2023-01-23T21:14:29.513Z,2.33
2023-01-23T21:16:59.422Z,2.07
2023-01-23T21:19:27.854Z,2.33
2023-01-23T21:21:56.234Z,2.47
2023-01-23T21:24:24.783Z,2.20
2023-01-23T21:26:53.303Z,2.57
2023-01-23T21:29:21.698Z,2.47
2023-01-23T21:31:51.558Z,2.50
2023-01-23T21:34:21.456Z,2.30
2023-01-23T21:36:49.841Z,2.33
2023-01-23T21:39:18.566Z,2.20
2023-01-23T21:41:47.029Z,2.37
2023-01-23T21:44:15.619Z,2.40
2023-01-23T21:46:44.177Z,2.73
2023-01-23T21:49:13.608Z,2.17
2023-01-23T21:51:44.722Z,2.40
2023-01-23T21:54:13.178Z,2.47
2023-01-23T21:56:41.624Z,2.20
2023-01-23T21:59:10.298Z,2.40
2023-01-23T22:01:42.416Z,2.77
2023-01-23T22:04:12.206Z,2.30
2023-01-23T22:06:41.251Z,2.50
2023-01-23T22:09:12.088Z,2.70
2023-01-23T22:11:40.510Z,2.53
2023-01-23T22:14:09.034Z,3.00
2023-01-23T22:16:51.546Z,2.73
2023-01-23T22:19:24.188Z,2.53
2023-01-23T22:21:53.660Z,2.70
2023-01-23T22:24:23.657Z,2.37
2023-01-23T22:26:52.088Z,2.80
2023-01-23T22:29:20.541Z,2.50
2023-01-23T22:31:49.078Z,2.63
2023-01-23T22:34:17.563Z,2.80
2023-01-23T22:36:45.947Z,2.67
2023-01-23T22:39:16.126Z,3.10
2023-01-23T22:41:47.469Z,3.30
2023-01-23T22:44:15.998Z,3.13
2023-01-23T22:46:44.536Z,2.80
2023-01-23T22:49:13.119Z,2.70
2023-01-23T22:51:41.597Z,2.90
2023-01-23T22:54:10.041Z,3.33
2023-01-23T22:56:38.468Z,2.83
2023-01-23T22:59:08.319Z,2.93
2023-01-23T23:01:36.757Z,3.00
2023-01-23T23:04:05.218Z,3.33
2023-01-23T23:06:33.707Z,3.43
2023-01-23T23:09:02.134Z,3.13
2023-01-23T23:11:30.594Z,3.20
2023-01-23T23:13:59.491Z,3.20
2023-01-23T23:16:31.047Z,3.50
2023-01-23T23:19:00.467Z,3.07
2023-01-23T23:21:31.627Z,3.07
2023-01-23T23:24:02.194Z,3.13
2023-01-23T23:26:31.721Z,3.23
2023-01-23T23:29:00.398Z,3.13
2023-01-23T23:31:30.380Z,3.10
2023-01-23T23:33:58.874Z,3.67
2023-01-23T23:36:27.712Z,3.13
2023-01-23T23:38:56.195Z,3.13
2023-01-23T23:41:24.612Z,2.87
2023-01-23T23:43:53.059Z,3.03
2023-01-23T23:46:21.464Z,3.43
2023-01-23T23:48:51.328Z,3.60
2023-01-23T23:51:22.774Z,3.00
2023-01-23T23:53:51.542Z,2.93
2023-01-23T23:56:21.759Z,3.00
2023-01-23T23:58:50.243Z,2.80
